?

Log in

No account? Create an account

Previous | Next

Nov. 21st, 2007

Fine weather for the day before Thanksgiving.

METAR KCMI 211753Z 02014KT 1 1/4SM +TSRA BR BKN007 OVC011 07/07 A2980 RMK AO2 LTG DSNT SW AND W TSB36 SLP093

Tags:

Comments

( 2 comments — Comment )
stuffedsheep29
Nov. 21st, 2007 06:33 pm (UTC)
BKN007 is my favorite kind of weather!
szasz
Nov. 21st, 2007 06:34 pm (UTC)
+TSRA!!!
( 2 comments — Comment )

Profile

14L
szasz
Charley

Latest Month

July 2013
S M T W T F S
 123456
78910111213
14151617181920
21222324252627
28293031